sensor_id;sensor_type;location;lat;lon;timestamp;pressure;altitude;pressure_sealevel;temperature;humidity
58668;BME280;59852;43.086;25.634;2023-05-24T00:01:25;98606.69;;;14.29;84.38
58668;BME280;59852;43.086;25.634;2023-05-24T00:03:51;98615.88;;;14.04;85.79
58668;BME280;59852;43.086;25.634;2023-05-24T00:06:19;98609.94;;;14.02;85.35
58668;BME280;59852;43.086;25.634;2023-05-24T00:08:45;98615.09;;;14.23;84.57
58668;BME280;59852;43.086;25.634;2023-05-24T00:11:11;98612.19;;;14.06;84.95
58668;BME280;59852;43.086;25.634;2023-05-24T00:13:36;98610.22;;;14.09;84.41
58668;BME280;59852;43.086;25.634;2023-05-24T00:16:02;98606.66;;;13.69;85.89
58668;BME280;59852;43.086;25.634;2023-05-24T00:18:27;98605.84;;;13.78;86.08
58668;BME280;59852;43.086;25.634;2023-05-24T00:20:55;98596.25;;;14.08;84.08
58668;BME280;59852;43.086;25.634;2023-05-24T00:23:22;98602.63;;;13.75;84.83
58668;BME280;59852;43.086;25.634;2023-05-24T00:25:47;98597.63;;;13.62;85.94
58668;BME280;59852;43.086;25.634;2023-05-24T00:28:12;98592.91;;;13.66;86.00
58668;BME280;59852;43.086;25.634;2023-05-24T00:30:37;98590.94;;;13.89;85.14
58668;BME280;59852;43.086;25.634;2023-05-24T00:33:03;98590.03;;;13.69;85.77
58668;BME280;59852;43.086;25.634;2023-05-24T00:35:29;98591.06;;;13.57;86.20
58668;BME280;59852;43.086;25.634;2023-05-24T00:37:55;98588.25;;;13.69;85.65
58668;BME280;59852;43.086;25.634;2023-05-24T00:40:21;98588.09;;;13.71;85.43
58668;BME280;59852;43.086;25.634;2023-05-24T00:42:46;98590.44;;;13.64;85.45
58668;BME280;59852;43.086;25.634;2023-05-24T00:45:11;98588.50;;;13.66;84.96
58668;BME280;59852;43.086;25.634;2023-05-24T00:47:37;98588.09;;;13.71;85.03
58668;BME280;59852;43.086;25.634;2023-05-24T00:50:02;98586.06;;;13.84;84.55
58668;BME280;59852;43.086;25.634;2023-05-24T00:52:28;98592.41;;;13.72;84.31
58668;BME280;59852;43.086;25.634;2023-05-24T00:54:53;98585.06;;;13.75;83.79
58668;BME280;59852;43.086;25.634;2023-05-24T00:57:18;98585.81;;;13.87;83.12
58668;BME280;59852;43.086;25.634;2023-05-24T00:59:44;98582.88;;;13.81;83.04
58668;BME280;59852;43.086;25.634;2023-05-24T01:02:10;98588.81;;;13.73;83.39
58668;BME280;59852;43.086;25.634;2023-05-24T01:04:35;98593.19;;;13.63;83.91
58668;BME280;59852;43.086;25.634;2023-05-24T01:07:08;98586.44;;;13.70;83.58
58668;BME280;59852;43.086;25.634;2023-05-24T01:14:41;98591.81;;;13.59;84.29
58668;BME280;59852;43.086;25.634;2023-05-24T01:17:26;98595.63;;;13.85;82.80
58668;BME280;59852;43.086;25.634;2023-05-24T01:19:55;98595.69;;;13.64;83.68
58668;BME280;59852;43.086;25.634;2023-05-24T01:25:01;98599.69;;;13.59;84.02
58668;BME280;59852;43.086;25.634;2023-05-24T01:27:27;98604.16;;;13.37;84.24
58668;BME280;59852;43.086;25.634;2023-05-24T01:29:54;98598.69;;;13.50;84.41
58668;BME280;59852;43.086;25.634;2023-05-24T01:32:20;98602.34;;;13.68;83.59
58668;BME280;59852;43.086;25.634;2023-05-24T01:34:46;98604.03;;;13.69;83.50
58668;BME280;59852;43.086;25.634;2023-05-24T01:37:11;98604.34;;;13.55;83.08
58668;BME280;59852;43.086;25.634;2023-05-24T01:39:36;98602.44;;;13.57;83.76
58668;BME280;59852;43.086;25.634;2023-05-24T01:44:33;98610.97;;;13.49;84.12
58668;BME280;59852;43.086;25.634;2023-05-24T01:49:45;98610.19;;;13.28;84.76
58668;BME280;59852;43.086;25.634;2023-05-24T01:52:18;98602.34;;;13.38;84.69
58668;BME280;59852;43.086;25.634;2023-05-24T01:54:44;98602.50;;;13.46;83.99
58668;BME280;59852;43.086;25.634;2023-05-24T01:57:11;98602.47;;;13.36;84.57
58668;BME280;59852;43.086;25.634;2023-05-24T01:59:40;98605.63;;;13.30;84.62
58668;BME280;59852;43.086;25.634;2023-05-24T02:02:07;98609.66;;;13.34;84.07
58668;BME280;59852;43.086;25.634;2023-05-24T02:04:33;98613.56;;;12.98;85.98
58668;BME280;59852;43.086;25.634;2023-05-24T02:06:58;98618.06;;;13.17;85.19
58668;BME280;59852;43.086;25.634;2023-05-24T02:09:24;98611.53;;;13.23;84.58
58668;BME280;59852;43.086;25.634;2023-05-24T02:11:49;98613.09;;;13.14;85.23
58668;BME280;59852;43.086;25.634;2023-05-24T02:14:15;98618.91;;;13.29;84.17
58668;BME280;59852;43.086;25.634;2023-05-24T02:16:41;98615.53;;;13.27;84.40
58668;BME280;59852;43.086;25.634;2023-05-24T02:19:11;98616.88;;;13.00;84.57
58668;BME280;59852;43.086;25.634;2023-05-24T02:21:36;98620.31;;;12.80;85.06
58668;BME280;59852;43.086;25.634;2023-05-24T02:24:01;98615.56;;;12.74;85.11
58668;BME280;59852;43.086;25.634;2023-05-24T02:26:27;98616.72;;;12.81;84.95
58668;BME280;59852;43.086;25.634;2023-05-24T02:28:52;98620.25;;;12.70;84.82
58668;BME280;59852;43.086;25.634;2023-05-24T02:31:17;98611.47;;;12.81;83.98
58668;BME280;59852;43.086;25.634;2023-05-24T02:33:43;98614.34;;;12.78;84.30
58668;BME280;59852;43.086;25.634;2023-05-24T02:36:08;98615.63;;;12.83;83.94
58668;BME280;59852;43.086;25.634;2023-05-24T02:38:33;98621.06;;;12.71;84.76
58668;BME280;59852;43.086;25.634;2023-05-24T02:41:01;98621.78;;;12.73;84.47
58668;BME280;59852;43.086;25.634;2023-05-24T02:43:26;98610.47;;;12.93;84.01
58668;BME280;59852;43.086;25.634;2023-05-24T02:45:51;98614.94;;;12.81;84.45
58668;BME280;59852;43.086;25.634;2023-05-24T02:48:17;98616.09;;;12.88;83.73
58668;BME280;59852;43.086;25.634;2023-05-24T02:50:42;98613.56;;;12.98;83.90
58668;BME280;59852;43.086;25.634;2023-05-24T02:53:08;98611.78;;;12.87;84.23
58668;BME280;59852;43.086;25.634;2023-05-24T02:55:33;98614.94;;;13.02;83.41
58668;BME280;59852;43.086;25.634;2023-05-24T02:57:58;98618.41;;;13.03;83.18
58668;BME280;59852;43.086;25.634;2023-05-24T03:00:24;98618.47;;;13.12;82.75
58668;BME280;59852;43.086;25.634;2023-05-24T03:02:49;98618.97;;;13.06;82.98
58668;BME280;59852;43.086;25.634;2023-05-24T03:05:17;98621.03;;;13.03;83.11
58668;BME280;59852;43.086;25.634;2023-05-24T03:07:43;98620.91;;;12.51;85.24
58668;BME280;59852;43.086;25.634;2023-05-24T03:10:08;98628.31;;;12.78;84.76
58668;BME280;59852;43.086;25.634;2023-05-24T03:12:34;98629.34;;;12.87;84.05
58668;BME280;59852;43.086;25.634;2023-05-24T03:14:59;98619.94;;;13.05;83.26
58668;BME280;59852;43.086;25.634;2023-05-24T03:17:25;98623.16;;;13.09;83.03
58668;BME280;59852;43.086;25.634;2023-05-24T03:19:50;98623.25;;;13.07;83.19
58668;BME280;59852;43.086;25.634;2023-05-24T03:22:17;98626.09;;;12.95;84.17
58668;BME280;59852;43.086;25.634;2023-05-24T03:24:42;98620.47;;;12.99;83.47
58668;BME280;59852;43.086;25.634;2023-05-24T03:27:07;98630.81;;;12.80;84.80
58668;BME280;59852;43.086;25.634;2023-05-24T03:29:33;98626.19;;;12.72;85.29
58668;BME280;59852;43.086;25.634;2023-05-24T03:31:58;98631.38;;;12.83;85.83
58668;BME280;59852;43.086;25.634;2023-05-24T03:34:23;98636.66;;;13.04;84.79
58668;BME280;59852;43.086;25.634;2023-05-24T03:36:48;98636.66;;;13.04;83.02
58668;BME280;59852;43.086;25.634;2023-05-24T03:39:14;98629.78;;;13.24;82.45
58668;BME280;59852;43.086;25.634;2023-05-24T03:41:39;98637.28;;;13.29;82.58
58668;BME280;59852;43.086;25.634;2023-05-24T03:44:05;98638.31;;;13.05;84.26
58668;BME280;59852;43.086;25.634;2023-05-24T03:46:30;98644.47;;;13.15;84.66
58668;BME280;59852;43.086;25.634;2023-05-24T03:48:55;98647.00;;;12.85;84.83
58668;BME280;59852;43.086;25.634;2023-05-24T03:51:21;98646.41;;;12.60;86.89
58668;BME280;59852;43.086;25.634;2023-05-24T03:53:53;98654.25;;;12.92;85.20
58668;BME280;59852;43.086;25.634;2023-05-24T03:56:19;98648.22;;;13.34;82.23
58668;BME280;59852;43.086;25.634;2023-05-24T03:58:44;98653.94;;;13.39;81.64
58668;BME280;59852;43.086;25.634;2023-05-24T04:01:10;98648.50;;;12.99;84.54
58668;BME280;59852;43.086;25.634;2023-05-24T04:03:36;98651.97;;;12.99;85.30
58668;BME280;59852;43.086;25.634;2023-05-24T04:06:01;98644.78;;;13.01;84.70
58668;BME280;59852;43.086;25.634;2023-05-24T04:08:26;98643.50;;;13.16;84.35
58668;BME280;59852;43.086;25.634;2023-05-24T04:10:52;98648.56;;;13.19;84.11
58668;BME280;59852;43.086;25.634;2023-05-24T04:13:17;98636.38;;;13.70;81.39
58668;BME280;59852;43.086;25.634;2023-05-24T04:15:42;98648.19;;;13.55;81.41
58668;BME280;59852;43.086;25.634;2023-05-24T04:18:08;98647.44;;;13.43;80.41
58668;BME280;59852;43.086;25.634;2023-05-24T04:20:33;98641.06;;;13.66;80.85
58668;BME280;59852;43.086;25.634;2023-05-24T04:22:58;98643.25;;;13.92;79.32
58668;BME280;59852;43.086;25.634;2023-05-24T04:25:24;98645.09;;;14.01;79.19
58668;BME280;59852;43.086;25.634;2023-05-24T04:27:50;98637.56;;;13.87;78.43
58668;BME280;59852;43.086;25.634;2023-05-24T04:30:16;98654.28;;;13.55;79.82
58668;BME280;59852;43.086;25.634;2023-05-24T04:32:41;98646.13;;;13.79;79.37
58668;BME280;59852;43.086;25.634;2023-05-24T04:35:10;98644.59;;;13.76;79.03
58668;BME280;59852;43.086;25.634;2023-05-24T04:37:36;98656.50;;;14.21;78.05
58668;BME280;59852;43.086;25.634;2023-05-24T04:40:01;98652.63;;;14.25;76.76
58668;BME280;59852;43.086;25.634;2023-05-24T04:42:28;98655.34;;;14.54;77.11
58668;BME280;59852;43.086;25.634;2023-05-24T04:44:56;98656.34;;;14.72;77.25
58668;BME280;59852;43.086;25.634;2023-05-24T04:47:22;98654.69;;;14.71;75.84
58668;BME280;59852;43.086;25.634;2023-05-24T04:49:47;98658.28;;;14.80;75.47
58668;BME280;59852;43.086;25.634;2023-05-24T04:52:13;98656.91;;;14.76;75.95
58668;BME280;59852;43.086;25.634;2023-05-24T04:54:38;98657.59;;;14.78;75.01
58668;BME280;59852;43.086;25.634;2023-05-24T04:57:04;98663.00;;;14.86;74.68
58668;BME280;59852;43.086;25.634;2023-05-24T04:59:29;98664.53;;;14.98;74.13
58668;BME280;59852;43.086;25.634;2023-05-24T05:01:55;98668.53;;;15.02;73.54
58668;BME280;59852;43.086;25.634;2023-05-24T05:04:20;98668.53;;;15.12;75.06
58668;BME280;59852;43.086;25.634;2023-05-24T05:06:45;98666.88;;;15.11;74.22
58668;BME280;59852;43.086;25.634;2023-05-24T05:09:12;98662.88;;;15.16;73.86
58668;BME280;59852;43.086;25.634;2023-05-24T05:11:38;98667.84;;;15.29;73.59
58668;BME280;59852;43.086;25.634;2023-05-24T05:14:04;98663.50;;;15.47;72.65
58668;BME280;59852;43.086;25.634;2023-05-24T05:16:30;98666.31;;;15.36;72.29
58668;BME280;59852;43.086;25.634;2023-05-24T05:18:56;98663.09;;;15.42;73.11
58668;BME280;59852;43.086;25.634;2023-05-24T05:21:21;98664.63;;;15.45;72.54
58668;BME280;59852;43.086;25.634;2023-05-24T05:23:46;98669.44;;;15.59;71.91
58668;BME280;59852;43.086;25.634;2023-05-24T05:26:12;98668.22;;;15.63;72.23
58668;BME280;59852;43.086;25.634;2023-05-24T05:28:37;98672.06;;;15.69;71.72
58668;BME280;59852;43.086;25.634;2023-05-24T05:31:02;98672.91;;;15.60;71.40
58668;BME280;59852;43.086;25.634;2023-05-24T05:33:29;98676.81;;;15.65;72.31
58668;BME280;59852;43.086;25.634;2023-05-24T05:35:55;98680.91;;;15.87;71.80
58668;BME280;59852;43.086;25.634;2023-05-24T05:38:20;98676.44;;;15.97;71.57
58668;BME280;59852;43.086;25.634;2023-05-24T05:40:45;98681.28;;;15.92;72.29
58668;BME280;59852;43.086;25.634;2023-05-24T05:43:11;98679.19;;;16.05;72.32
58668;BME280;59852;43.086;25.634;2023-05-24T05:45:36;98680.09;;;16.14;71.61
58668;BME280;59852;43.086;25.634;2023-05-24T05:48:01;98677.06;;;16.09;72.08
58668;BME280;59852;43.086;25.634;2023-05-24T05:50:26;98683.31;;;16.08;72.01
58668;BME280;59852;43.086;25.634;2023-05-24T05:52:52;98675.47;;;16.26;71.58
58668;BME280;59852;43.086;25.634;2023-05-24T05:55:17;98686.19;;;16.24;71.11
58668;BME280;59852;43.086;25.634;2023-05-24T05:57:42;98682.03;;;16.40;71.37
58668;BME280;59852;43.086;25.634;2023-05-24T06:00:08;98688.16;;;16.40;70.79
58668;BME280;59852;43.086;25.634;2023-05-24T06:02:34;98684.53;;;16.41;71.20
58668;BME280;59852;43.086;25.634;2023-05-24T06:04:59;98695.97;;;16.59;71.34
58668;BME280;59852;43.086;25.634;2023-05-24T06:07:24;98692.59;;;16.67;71.08
58668;BME280;59852;43.086;25.634;2023-05-24T06:09:50;98690.91;;;16.76;70.81
58668;BME280;59852;43.086;25.634;2023-05-24T06:12:15;98699.06;;;16.82;70.51
58668;BME280;59852;43.086;25.634;2023-05-24T06:14:40;98695.97;;;16.87;70.62
58668;BME280;59852;43.086;25.634;2023-05-24T06:17:06;98697.31;;;16.91;71.12
58668;BME280;59852;43.086;25.634;2023-05-24T06:19:31;98694.91;;;16.98;70.64
58668;BME280;59852;43.086;25.634;2023-05-24T06:21:57;98693.84;;;17.08;70.20
58668;BME280;59852;43.086;25.634;2023-05-24T06:24:22;98693.69;;;17.10;69.21
58668;BME280;59852;43.086;25.634;2023-05-24T06:26:49;98694.22;;;17.13;69.56
58668;BME280;59852;43.086;25.634;2023-05-24T06:29:15;98697.38;;;17.17;69.94
58668;BME280;59852;43.086;25.634;2023-05-24T06:31:40;98698.28;;;17.26;70.05
58668;BME280;59852;43.086;25.634;2023-05-24T06:34:07;98694.06;;;17.33;70.27
58668;BME280;59852;43.086;25.634;2023-05-24T06:36:32;98692.94;;;17.17;70.40
58668;BME280;59852;43.086;25.634;2023-05-24T06:39:00;98700.03;;;17.35;70.15
58668;BME280;59852;43.086;25.634;2023-05-24T06:41:25;98692.88;;;17.53;69.94
58668;BME280;59852;43.086;25.634;2023-05-24T06:43:51;98692.25;;;17.59;69.64
58668;BME280;59852;43.086;25.634;2023-05-24T06:46:16;98688.00;;;17.66;69.66
58668;BME280;59852;43.086;25.634;2023-05-24T06:48:41;98695.03;;;17.75;69.20
58668;BME280;59852;43.086;25.634;2023-05-24T06:51:07;98690.97;;;17.89;69.63
58668;BME280;59852;43.086;25.634;2023-05-24T06:53:32;98690.19;;;17.97;68.88
58668;BME280;59852;43.086;25.634;2023-05-24T06:55:57;98685.22;;;17.94;70.05
58668;BME280;59852;43.086;25.634;2023-05-24T06:58:23;98689.91;;;18.00;68.91
58668;BME280;59852;43.086;25.634;2023-05-24T07:00:48;98689.25;;;18.06;68.89
58668;BME280;59852;43.086;25.634;2023-05-24T07:03:14;98678.38;;;18.17;69.68
58668;BME280;59852;43.086;25.634;2023-05-24T07:05:40;98675.97;;;18.32;68.63
58668;BME280;59852;43.086;25.634;2023-05-24T07:08:05;98680.47;;;18.40;67.89
58668;BME280;59852;43.086;25.634;2023-05-24T07:10:31;98684.28;;;18.45;67.78
58668;BME280;59852;43.086;25.634;2023-05-24T07:12:56;98683.81;;;18.58;67.63
58668;BME280;59852;43.086;25.634;2023-05-24T07:15:21;98688.47;;;18.64;67.37
58668;BME280;59852;43.086;25.634;2023-05-24T07:17:47;98687.41;;;18.83;67.41
58668;BME280;59852;43.086;25.634;2023-05-24T07:20:12;98689.91;;;19.01;66.81
58668;BME280;59852;43.086;25.634;2023-05-24T07:22:38;98685.28;;;19.03;66.77
58668;BME280;59852;43.086;25.634;2023-05-24T07:25:04;98693.56;;;19.16;66.21
58668;BME280;59852;43.086;25.634;2023-05-24T07:27:29;98685.94;;;19.05;65.04
58668;BME280;59852;43.086;25.634;2023-05-24T07:29:55;98685.59;;;19.24;65.16
58668;BME280;59852;43.086;25.634;2023-05-24T07:32:21;98686.75;;;19.05;64.59
58668;BME280;59852;43.086;25.634;2023-05-24T07:34:46;98688.78;;;19.19;64.58
58668;BME280;59852;43.086;25.634;2023-05-24T07:37:12;98686.63;;;19.39;64.55
58668;BME280;59852;43.086;25.634;2023-05-24T07:39:37;98687.91;;;19.52;63.71
58668;BME280;59852;43.086;25.634;2023-05-24T07:42:03;98686.25;;;19.75;64.23
58668;BME280;59852;43.086;25.634;2023-05-24T07:44:28;98687.59;;;19.63;63.48
58668;BME280;59852;43.086;25.634;2023-05-24T07:46:54;98679.94;;;19.76;64.12
58668;BME280;59852;43.086;25.634;2023-05-24T07:49:19;98684.53;;;20.07;62.71
58668;BME280;59852;43.086;25.634;2023-05-24T07:51:45;98680.50;;;20.19;62.07
58668;BME280;59852;43.086;25.634;2023-05-24T07:54:10;98690.78;;;20.22;62.25
58668;BME280;59852;43.086;25.634;2023-05-24T07:56:35;98691.25;;;20.25;61.78
58668;BME280;59852;43.086;25.634;2023-05-24T07:59:01;98690.59;;;20.23;61.55
58668;BME280;59852;43.086;25.634;2023-05-24T08:01:32;98694.13;;;20.16;60.52
58668;BME280;59852;43.086;25.634;2023-05-24T08:03:59;98695.41;;;20.28;60.23
58668;BME280;59852;43.086;25.634;2023-05-24T08:06:24;98682.75;;;20.38;60.31
58668;BME280;59852;43.086;25.634;2023-05-24T08:08:50;98681.84;;;20.54;60.33
58668;BME280;59852;43.086;25.634;2023-05-24T08:11:16;98682.56;;;20.79;55.60
58668;BME280;59852;43.086;25.634;2023-05-24T08:13:42;98686.69;;;20.50;58.61
58668;BME280;59852;43.086;25.634;2023-05-24T08:16:07;98686.34;;;20.53;53.72
58668;BME280;59852;43.086;25.634;2023-05-24T08:18:33;98686.69;;;20.50;56.88
58668;BME280;59852;43.086;25.634;2023-05-24T08:20:58;98678.06;;;20.79;54.47
58668;BME280;59852;43.086;25.634;2023-05-24T08:23:23;98684.09;;;20.96;55.83
58668;BME280;59852;43.086;25.634;2023-05-24T08:25:49;98691.34;;;21.02;56.69
58668;BME280;59852;43.086;25.634;2023-05-24T08:28:14;98693.19;;;21.02;54.27
58668;BME280;59852;43.086;25.634;2023-05-24T08:30:40;98693.19;;;21.02;53.61
58668;BME280;59852;43.086;25.634;2023-05-24T08:33:06;98695.16;;;21.08;52.96
58668;BME280;59852;43.086;25.634;2023-05-24T08:35:31;98693.69;;;21.05;55.00
58668;BME280;59852;43.086;25.634;2023-05-24T08:37:57;98696.97;;;20.84;56.93
58668;BME280;59852;43.086;25.634;2023-05-24T08:40:22;98691.44;;;20.63;57.19
58668;BME280;59852;43.086;25.634;2023-05-24T08:42:48;98704.22;;;21.13;56.88
58668;BME280;59852;43.086;25.634;2023-05-24T08:45:14;98698.19;;;21.28;54.17
58668;BME280;59852;43.086;25.634;2023-05-24T08:47:40;98698.47;;;21.33;54.65
58668;BME280;59852;43.086;25.634;2023-05-24T08:50:06;98696.38;;;21.43;54.50
58668;BME280;59852;43.086;25.634;2023-05-24T08:52:32;98694.97;;;21.55;55.08
58668;BME280;59852;43.086;25.634;2023-05-24T08:54:58;98697.75;;;21.76;53.24
58668;BME280;59852;43.086;25.634;2023-05-24T08:57:25;98697.69;;;21.85;53.63
58668;BME280;59852;43.086;25.634;2023-05-24T08:59:50;98693.06;;;21.79;52.38
58668;BME280;59852;43.086;25.634;2023-05-24T09:02:17;98698.16;;;22.03;52.30
58668;BME280;59852;43.086;25.634;2023-05-24T09:04:42;98697.34;;;22.17;51.87
58668;BME280;59852;43.086;25.634;2023-05-24T09:07:11;98692.72;;;22.11;50.97
58668;BME280;59852;43.086;25.634;2023-05-24T09:09:37;98693.28;;;22.21;50.68
58668;BME280;59852;43.086;25.634;2023-05-24T09:12:08;98690.91;;;22.12;49.35
58668;BME280;59852;43.086;25.634;2023-05-24T09:14:35;98695.50;;;22.32;52.24
58668;BME280;59852;43.086;25.634;2023-05-24T09:17:01;98695.31;;;22.34;48.82
58668;BME280;59852;43.086;25.634;2023-05-24T09:19:26;98703.59;;;22.24;48.63
58668;BME280;59852;43.086;25.634;2023-05-24T09:21:53;98695.31;;;22.34;48.41
58668;BME280;59852;43.086;25.634;2023-05-24T09:24:18;98702.56;;;22.25;49.12
58668;BME280;59852;43.086;25.634;2023-05-24T09:26:44;98703.03;;;22.14;49.23
58668;BME280;59852;43.086;25.634;2023-05-24T09:29:09;98701.25;;;22.51;49.79
58668;BME280;59852;43.086;25.634;2023-05-24T09:31:35;98700.25;;;22.37;49.75
58668;BME280;59852;43.086;25.634;2023-05-24T09:34:01;98705.06;;;22.27;49.03
58668;BME280;59852;43.086;25.634;2023-05-24T09:36:27;98697.88;;;22.42;48.80
58668;BME280;59852;43.086;25.634;2023-05-24T09:39:06;98704.63;;;22.59;47.82
58668;BME280;59852;43.086;25.634;2023-05-24T09:41:33;98694.06;;;22.51;47.55
58668;BME280;59852;43.086;25.634;2023-05-24T09:43:58;98701.31;;;22.72;47.21
58668;BME280;59852;43.086;25.634;2023-05-24T09:46:25;98697.75;;;22.50;47.41
58668;BME280;59852;43.086;25.634;2023-05-24T09:48:59;98698.13;;;22.47;47.35
58668;BME280;59852;43.086;25.634;2023-05-24T09:51:27;98695.81;;;22.59;46.18
58668;BME280;59852;43.086;25.634;2023-05-24T09:53:55;98692.94;;;22.75;47.70
58668;BME280;59852;43.086;25.634;2023-05-24T09:56:21;98696.03;;;22.79;46.04
58668;BME280;59852;43.086;25.634;2023-05-24T09:58:47;98684.47;;;22.86;48.08
58668;BME280;59852;43.086;25.634;2023-05-24T10:01:13;98683.31;;;22.96;46.66
58668;BME280;59852;43.086;25.634;2023-05-24T10:04:01;98682.25;;;22.75;45.91
58668;BME280;59852;43.086;25.634;2023-05-24T10:06:27;98678.16;;;22.73;46.11
58668;BME280;59852;43.086;25.634;2023-05-24T10:08:52;98680.53;;;23.04;46.19
58668;BME280;59852;43.086;25.634;2023-05-24T10:11:19;98677.06;;;23.03;45.92
58668;BME280;59852;43.086;25.634;2023-05-24T10:13:46;98682.19;;;23.26;46.16
58668;BME280;59852;43.086;25.634;2023-05-24T10:16:12;98674.16;;;23.26;44.40
58668;BME280;59852;43.086;25.634;2023-05-24T10:18:37;98677.84;;;23.25;44.94
58668;BME280;59852;43.086;25.634;2023-05-24T10:21:04;98676.66;;;23.28;41.83
58668;BME280;59852;43.086;25.634;2023-05-24T10:23:32;98673.44;;;23.39;42.89
58668;BME280;59852;43.086;25.634;2023-05-24T10:26:02;98667.34;;;23.45;43.03
58668;BME280;59852;43.086;25.634;2023-05-24T10:28:27;98669.25;;;23.30;43.84
58668;BME280;59852;43.086;25.634;2023-05-24T10:33:23;98667.53;;;23.43;43.60
58668;BME280;59852;43.086;25.634;2023-05-24T10:35:48;98667.09;;;23.40;43.91
58668;BME280;59852;43.086;25.634;2023-05-24T10:38:15;98666.72;;;23.43;43.99
58668;BME280;59852;43.086;25.634;2023-05-24T10:40:40;98657.00;;;23.35;44.36
58668;BME280;59852;43.086;25.634;2023-05-24T10:43:06;98660.31;;;23.37;43.09
58668;BME280;59852;43.086;25.634;2023-05-24T10:45:33;98655.44;;;23.47;43.96
58668;BME280;59852;43.086;25.634;2023-05-24T10:48:06;98642.94;;;23.76;42.92
58668;BME280;59852;43.086;25.634;2023-05-24T10:50:32;98648.84;;;23.65;42.04
58668;BME280;59852;43.086;25.634;2023-05-24T10:53:10;98643.56;;;23.71;42.16
58668;BME280;59852;43.086;25.634;2023-05-24T10:55:49;98642.16;;;23.54;42.16
58668;BME280;59852;43.086;25.634;2023-05-24T10:58:16;98645.88;;;23.88;41.99
58668;BME280;59852;43.086;25.634;2023-05-24T11:00:42;98628.00;;;23.88;43.46
58668;BME280;59852;43.086;25.634;2023-05-24T11:03:09;98633.75;;;23.85;41.98
58668;BME280;59852;43.086;25.634;2023-05-24T11:08:00;98623.94;;;23.92;41.70
58668;BME280;59852;43.086;25.634;2023-05-24T11:10:29;98618.91;;;23.48;42.28
58668;BME280;59852;43.086;25.634;2023-05-24T11:12:56;98622.31;;;23.91;41.36
58668;BME280;59852;43.086;25.634;2023-05-24T11:15:22;98630.38;;;24.04;41.32
58668;BME280;59852;43.086;25.634;2023-05-24T11:20:41;98618.69;;;24.12;41.73
58668;BME280;59852;43.086;25.634;2023-05-24T11:23:08;98615.22;;;23.77;41.76
58668;BME280;59852;43.086;25.634;2023-05-24T11:25:34;98608.78;;;24.06;41.28
58668;BME280;59852;43.086;25.634;2023-05-24T11:28:01;98608.41;;;24.09;42.67
58668;BME280;59852;43.086;25.634;2023-05-24T11:30:26;98615.78;;;24.07;41.72
58668;BME280;59852;43.086;25.634;2023-05-24T11:32:52;98602.66;;;24.12;43.03
58668;BME280;59852;43.086;25.634;2023-05-24T11:35:18;98604.88;;;24.09;44.91
58668;BME280;59852;43.086;25.634;2023-05-24T11:37:43;98605.28;;;23.64;43.97
58668;BME280;59852;43.086;25.634;2023-05-24T11:40:09;98604.22;;;23.93;43.80
58668;BME280;59852;43.086;25.634;2023-05-24T11:42:35;98601.69;;;24.20;43.25
58668;BME280;59852;43.086;25.634;2023-05-24T11:45:02;98605.75;;;24.16;45.13
58668;BME280;59852;43.086;25.634;2023-05-24T11:47:28;98607.63;;;24.28;43.19
58668;BME280;59852;43.086;25.634;2023-05-24T11:49:54;98609.38;;;24.43;43.78
58668;BME280;59852;43.086;25.634;2023-05-24T11:52:19;98595.69;;;23.77;42.63
58668;BME280;59852;43.086;25.634;2023-05-24T11:54:44;98590.91;;;24.07;44.02
58668;BME280;59852;43.086;25.634;2023-05-24T11:57:13;98596.75;;;24.23;42.29
58668;BME280;59852;43.086;25.634;2023-05-24T11:59:39;98589.34;;;24.25;42.78
58668;BME280;59852;43.086;25.634;2023-05-24T12:02:05;98588.09;;;24.28;44.54
58668;BME280;59852;43.086;25.634;2023-05-24T12:04:32;98588.03;;;24.63;42.31
58668;BME280;59852;43.086;25.634;2023-05-24T12:06:58;98586.72;;;24.32;42.27
58668;BME280;59852;43.086;25.634;2023-05-24T12:09:24;98580.81;;;24.50;43.19
58668;BME280;59852;43.086;25.634;2023-05-24T12:11:49;98574.06;;;24.06;41.78
58668;BME280;59852;43.086;25.634;2023-05-24T12:14:16;98573.91;;;24.21;42.73
58668;BME280;59852;43.086;25.634;2023-05-24T12:16:41;98577.53;;;24.54;43.18
58668;BME280;59852;43.086;25.634;2023-05-24T12:19:07;98567.53;;;24.22;43.48
58668;BME280;59852;43.086;25.634;2023-05-24T12:21:39;98573.81;;;24.42;44.43
58668;BME280;59852;43.086;25.634;2023-05-24T12:24:08;98577.94;;;24.58;43.62
58668;BME280;59852;43.086;25.634;2023-05-24T12:26:43;98574.09;;;24.13;44.03
58668;BME280;59852;43.086;25.634;2023-05-24T12:29:09;98580.00;;;24.63;42.52
58668;BME280;59852;43.086;25.634;2023-05-24T12:31:35;98573.00;;;24.48;42.42
58668;BME280;59852;43.086;25.634;2023-05-24T12:34:01;98563.53;;;23.98;43.14
58668;BME280;59852;43.086;25.634;2023-05-24T12:36:27;98558.47;;;24.16;42.74
58668;BME280;59852;43.086;25.634;2023-05-24T12:38:55;98555.09;;;23.94;44.25
58668;BME280;59852;43.086;25.634;2023-05-24T12:41:21;98567.47;;;24.02;42.84
58668;BME280;59852;43.086;25.634;2023-05-24T12:43:46;98562.00;;;24.23;43.23
58668;BME280;59852;43.086;25.634;2023-05-24T12:46:12;98559.19;;;24.45;42.82
58668;BME280;59852;43.086;25.634;2023-05-24T12:48:37;98556.31;;;24.33;41.87
58668;BME280;59852;43.086;25.634;2023-05-24T12:51:03;98562.91;;;23.89;44.06
58668;BME280;59852;43.086;25.634;2023-05-24T12:53:28;98560.53;;;23.66;44.41
58668;BME280;59852;43.086;25.634;2023-05-24T12:55:53;98562.44;;;23.79;43.75
58668;BME280;59852;43.086;25.634;2023-05-24T12:58:20;98558.75;;;23.80;44.60
58668;BME280;59852;43.086;25.634;2023-05-24T13:00:45;98560.31;;;23.68;44.82
58668;BME280;59852;43.086;25.634;2023-05-24T13:03:14;98551.38;;;23.82;43.46
58668;BME280;59852;43.086;25.634;2023-05-24T13:05:39;98555.84;;;24.23;44.62